Time;durP1;ratioP1;P1;durP2;ratioP2;P2;SDS_P1;SDS_P2;PMS_P1;PMS_P2;Temp;Humidity;BMP_temperature;BMP_pressure;BME280_temperature;BME280_humidity;BME280_pressure;Samples;Min_cycle;Max_cycle;Signal;HPM_P1;HPM_P2
2021/04/27 00:02:24;;;;;;;3.93;1.80;;;7.70;99.90;;;;;;5039957;28;20224;-56
2021/04/27 00:04:51;;;;;;;4.07;2.00;;;7.80;99.90;;;;;;5034516;28;20204;-56
2021/04/27 00:07:17;;;;;;;3.73;2.00;;;7.60;99.90;;;;;;5041531;28;20224;-56
2021/04/27 00:09:43;;;;;;;2.90;1.80;;;7.50;99.90;;;;;;5031362;28;20259;-55
2021/04/27 00:12:10;;;;;;;3.53;2.00;;;7.60;99.90;;;;;;5033873;28;20338;-56
2021/04/27 00:14:37;;;;;;;6.23;2.33;;;7.50;99.90;;;;;;5031770;28;20653;-56
2021/04/27 00:17:05;;;;;;;3.07;2.30;;;7.50;99.90;;;;;;5039495;28;20297;-56
2021/04/27 00:19:31;;;;;;;4.53;2.27;;;7.50;99.90;;;;;;5031959;28;20213;-56
2021/04/27 00:21:59;;;;;;;5.30;2.13;;;7.60;99.90;;;;;;5032500;28;20198;-56
2021/04/27 00:24:28;;;;;;;3.63;1.93;;;7.50;99.90;;;;;;5032144;28;20235;-56
2021/04/27 00:26:54;;;;;;;2.93;1.50;;;7.40;99.90;;;;;;5034909;28;20254;-56
2021/04/27 00:29:20;;;;;;;3.00;2.13;;;7.40;99.90;;;;;;5027367;28;20241;-56
2021/04/27 00:31:46;;;;;;;5.53;2.30;;;7.40;99.90;;;;;;5030963;28;20210;-56
2021/04/27 00:34:13;;;;;;;2.97;2.20;;;7.30;99.90;;;;;;5040949;28;20200;-56
2021/04/27 00:36:39;;;;;;;3.53;2.20;;;7.30;99.90;;;;;;5032090;28;21027;-56
2021/04/27 00:39:06;;;;;;;5.30;1.90;;;7.40;99.90;;;;;;5029043;28;20234;-56
2021/04/27 00:41:32;;;;;;;7.23;2.17;;;7.50;99.90;;;;;;5040303;28;20283;-56
2021/04/27 00:43:58;;;;;;;5.37;2.00;;;7.40;99.90;;;;;;5032262;28;20674;-56
2021/04/27 00:46:25;;;;;;;2.47;1.77;;;7.20;99.90;;;;;;5029584;28;20200;-56
2021/04/27 00:48:52;;;;;;;2.60;1.93;;;7.10;99.90;;;;;;5033062;28;20224;-56
2021/04/27 00:51:19;;;;;;;2.63;2.17;;;7.20;99.90;;;;;;5036931;28;20346;-57
2021/04/27 00:53:45;;;;;;;3.83;2.30;;;7.40;99.90;;;;;;5036667;28;20246;-56
2021/04/27 00:56:12;;;;;;;3.03;2.50;;;7.40;99.90;;;;;;5036974;28;20224;-56
2021/04/27 00:58:38;;;;;;;3.07;2.30;;;7.30;99.90;;;;;;5038133;28;20249;-56
2021/04/27 01:01:04;;;;;;;4.07;2.53;;;7.30;99.90;;;;;;5033988;28;20255;-56
2021/04/27 01:03:31;;;;;;;4.17;2.53;;;7.30;99.90;;;;;;5035978;28;20314;-56
2021/04/27 01:05:57;;;;;;;3.00;2.20;;;7.20;99.90;;;;;;5033157;28;20239;-56
2021/04/27 01:08:47;;;;;;;3.33;2.17;;;7.10;99.90;;;;;;5032424;28;20197;-56
2021/04/27 01:11:30;;;;;;;5.27;2.60;;;7.30;99.90;;;;;;5038601;28;20196;-56
2021/04/27 01:14:18;;;;;;;4.23;2.57;;;7.20;99.90;;;;;;5039207;28;20301;-56
2021/04/27 01:16:49;;;;;;;5.30;2.53;;;7.10;99.90;;;;;;5034575;28;20338;-56
2021/04/27 01:19:27;;;;;;;3.03;2.23;;;7.10;99.90;;;;;;5034389;28;20226;-56
2021/04/27 01:21:56;;;;;;;4.60;2.30;;;7.10;99.90;;;;;;5030548;28;20190;-56
2021/04/27 01:24:29;;;;;;;3.73;2.00;;;7.20;99.90;;;;;;5030792;28;20243;-56
2021/04/27 01:26:59;;;;;;;4.50;2.60;;;7.10;99.90;;;;;;5029380;28;20670;-56
2021/04/27 01:29:28;;;;;;;5.53;2.87;;;7.30;99.90;;;;;;5035799;28;20201;-56
2021/04/27 01:31:57;;;;;;;4.70;2.93;;;7.30;99.90;;;;;;5035005;28;20202;-56
2021/04/27 01:34:33;;;;;;;3.17;2.33;;;7.30;99.90;;;;;;5031045;28;20215;-56
2021/04/27 01:37:02;;;;;;;4.13;2.50;;;7.20;99.90;;;;;;5037110;28;20352;-56
2021/04/27 01:39:29;;;;;;;3.17;2.07;;;7.10;99.90;;;;;;5032399;28;20300;-56
2021/04/27 01:41:58;;;;;;;8.53;2.50;;;7.10;99.90;;;;;;5033861;28;20194;-56
2021/04/27 01:44:26;;;;;;;3.03;2.50;;;7.00;99.90;;;;;;5031234;28;20311;-56
2021/04/27 01:46:53;;;;;;;4.50;2.60;;;7.00;99.90;;;;;;5030731;28;20361;-56
2021/04/27 01:49:20;;;;;;;2.63;2.30;;;6.90;99.90;;;;;;5028431;28;20620;-56
2021/04/27 01:51:46;;;;;;;4.17;2.50;;;7.10;99.90;;;;;;5034833;28;20241;-56
2021/04/27 01:54:14;;;;;;;3.83;2.50;;;6.90;99.90;;;;;;5029667;28;20252;-56
2021/04/27 01:56:40;;;;;;;7.80;2.90;;;7.00;99.90;;;;;;5031847;28;20256;-56
2021/04/27 01:59:07;;;;;;;5.10;2.80;;;7.00;99.90;;;;;;5041639;28;20214;-56
2021/04/27 02:01:34;;;;;;;3.10;2.27;;;6.90;99.90;;;;;;5033848;28;20286;-56
2021/04/27 02:04:01;;;;;;;4.53;2.93;;;6.90;99.90;;;;;;5036256;28;20221;-56
2021/04/27 02:06:28;;;;;;;8.10;2.90;;;6.90;99.90;;;;;;5031222;28;20198;-56
2021/04/27 02:09:05;;;;;;;4.43;2.37;;;6.70;99.90;;;;;;5033929;28;20196;-56
2021/04/27 02:11:39;;;;;;;10.20;2.63;;;6.70;99.90;;;;;;5032001;28;20708;-56
2021/04/27 02:14:07;;;;;;;5.30;2.60;;;6.60;99.90;;;;;;5029109;28;20286;-56
2021/04/27 02:16:58;;;;;;;4.23;2.57;;;6.60;99.90;;;;;;5032759;28;20193;-56
2021/04/27 02:19:26;;;;;;;4.63;2.67;;;6.60;99.90;;;;;;5033817;28;20244;-56
2021/04/27 02:21:55;;;;;;;3.47;2.67;;;6.60;99.90;;;;;;5031483;28;20202;-56
2021/04/27 02:24:23;;;;;;;4.27;2.73;;;6.70;99.90;;;;;;5029261;28;20219;-56
2021/04/27 02:26:53;;;;;;;2.70;2.20;;;6.80;99.90;;;;;;5027836;28;20256;-56
2021/04/27 02:29:22;;;;;;;3.77;2.67;;;6.90;99.90;;;;;;5026608;28;20420;-56
2021/04/27 02:31:49;;;;;;;4.07;2.53;;;6.70;99.90;;;;;;5032315;28;20196;-56
2021/04/27 02:34:21;;;;;;;5.33;2.67;;;6.70;99.90;;;;;;5035585;28;20559;-56
2021/04/27 02:36:48;;;;;;;4.77;3.10;;;6.60;99.90;;;;;;5026077;28;20208;-56
2021/04/27 02:39:15;;;;;;;4.83;2.73;;;6.60;99.90;;;;;;5027276;28;20250;-56
2021/04/27 02:41:42;;;;;;;3.30;2.83;;;6.80;99.90;;;;;;5033246;28;20223;-56
2021/04/27 02:44:10;;;;;;;3.33;2.87;;;6.60;99.90;;;;;;5025300;28;20203;-56
2021/04/27 02:46:36;;;;;;;3.37;2.60;;;6.60;99.90;;;;;;5029363;28;20231;-56
2021/04/27 02:49:04;;;;;;;6.37;2.77;;;6.60;99.90;;;;;;5026582;28;20433;-56
2021/04/27 02:51:32;;;;;;;2.87;2.60;;;6.60;99.90;;;;;;5029073;28;20198;-56
2021/04/27 02:53:59;;;;;;;3.50;2.87;;;6.50;99.90;;;;;;5030986;28;20199;-56
2021/04/27 02:56:26;;;;;;;3.63;2.63;;;6.30;99.90;;;;;;5032315;28;20250;-56
2021/04/27 02:58:53;;;;;;;8.97;4.60;;;6.20;99.90;;;;;;5026538;28;20326;-56
2021/04/27 03:01:20;;;;;;;5.67;2.50;;;6.30;99.90;;;;;;5029888;28;20202;-56
2021/04/27 03:03:47;;;;;;;3.60;2.60;;;6.10;99.90;;;;;;5029892;28;20357;-56
2021/04/27 03:06:13;;;;;;;4.50;2.77;;;6.00;99.90;;;;;;5032013;28;20285;-56
2021/04/27 03:08:39;;;;;;;6.23;3.00;;;6.20;99.90;;;;;;5031484;28;20286;-56
2021/04/27 03:11:06;;;;;;;3.50;2.70;;;6.10;99.90;;;;;;5032300;28;20224;-56
2021/04/27 03:13:34;;;;;;;2.93;2.63;;;6.10;99.90;;;;;;5029625;28;20326;-56
2021/04/27 03:16:00;;;;;;;6.37;2.87;;;6.10;99.90;;;;;;5029268;28;20261;-56
2021/04/27 03:18:26;;;;;;;5.57;3.37;;;6.20;99.90;;;;;;5033265;28;20265;-56
2021/04/27 03:20:52;;;;;;;6.37;3.33;;;6.10;99.90;;;;;;5030168;28;20465;-56
2021/04/27 03:23:21;;;;;;;3.77;3.00;;;6.20;99.90;;;;;;5040651;28;20241;-56
2021/04/27 03:25:48;;;;;;;3.20;2.63;;;6.30;99.90;;;;;;5031519;28;20198;-56
2021/04/27 03:28:15;;;;;;;5.00;3.03;;;6.10;99.90;;;;;;5037297;28;20512;-56
2021/04/27 03:30:41;;;;;;;6.23;2.57;;;6.20;99.90;;;;;;5036897;28;20312;-56
2021/04/27 03:33:08;;;;;;;3.77;3.03;;;6.20;99.90;;;;;;5033772;28;20611;-56
2021/04/27 03:35:34;;;;;;;7.17;3.00;;;6.00;99.90;;;;;;5030701;28;20534;-56
2021/04/27 03:38:01;;;;;;;6.73;2.80;;;6.20;99.90;;;;;;5035928;28;20662;-56
2021/04/27 03:40:27;;;;;;;6.97;3.10;;;6.10;99.90;;;;;;5031252;28;20392;-56
2021/04/27 03:42:53;;;;;;;5.93;3.67;;;6.10;99.90;;;;;;5035119;28;20205;-56
2021/04/27 03:45:22;;;;;;;4.17;3.37;;;6.00;99.90;;;;;;5029753;28;20269;-56
2021/04/27 03:47:49;;;;;;;4.60;2.73;;;5.90;99.90;;;;;;5036318;28;20718;-56
2021/04/27 03:50:19;;;;;;;5.00;3.20;;;6.00;99.90;;;;;;5025865;28;20710;-56
2021/04/27 03:52:46;;;;;;;4.00;2.83;;;5.90;99.90;;;;;;5030457;28;20481;-56
2021/04/27 03:55:15;;;;;;;4.60;3.50;;;6.00;99.90;;;;;;5031542;28;20648;-56
2021/04/27 03:57:42;;;;;;;4.67;3.70;;;5.80;99.90;;;;;;5031613;28;20207;-56
2021/04/27 04:00:08;;;;;;;4.80;3.40;;;5.90;99.90;;;;;;5028573;28;20320;-56
2021/04/27 04:02:35;;;;;;;5.90;3.80;;;5.80;99.90;;;;;;5034392;28;20844;-56
2021/04/27 04:05:01;;;;;;;4.27;3.37;;;5.80;99.90;;;;;;5031981;28;20201;-56
2021/04/27 04:07:27;;;;;;;7.90;3.63;;;5.70;99.90;;;;;;5034974;28;20263;-56
2021/04/27 04:09:54;;;;;;;6.87;3.50;;;5.60;99.90;;;;;;5032480;28;20822;-56
2021/04/27 04:12:20;;;;;;;8.63;3.60;;;5.60;99.90;;;;;;5026153;28;20262;-56
2021/04/27 04:14:46;;;;;;;3.40;3.10;;;5.70;99.90;;;;;;5033341;28;20302;-56
2021/04/27 04:17:13;;;;;;;3.60;2.97;;;5.50;99.90;;;;;;5027439;28;20257;-56
2021/04/27 04:19:39;;;;;;;4.03;3.20;;;5.50;99.90;;;;;;5029712;28;20226;-56
2021/04/27 04:22:06;;;;;;;3.23;2.93;;;5.50;99.90;;;;;;5033117;28;20196;-56
2021/04/27 04:24:33;;;;;;;4.93;3.40;;;5.40;99.90;;;;;;5028482;28;20196;-56
2021/04/27 04:27:00;;;;;;;7.00;3.10;;;5.40;99.90;;;;;;5030040;28;20217;-56
2021/04/27 04:29:26;;;;;;;3.63;3.23;;;5.60;99.90;;;;;;5028036;28;20236;-56
2021/04/27 04:31:53;;;;;;;6.73;3.43;;;5.40;99.90;;;;;;5030353;28;20228;-56
2021/04/27 04:34:20;;;;;;;6.43;3.63;;;5.30;99.90;;;;;;5027165;28;20882;-56
2021/04/27 04:36:47;;;;;;;8.13;3.53;;;5.30;99.90;;;;;;5030003;28;20299;-56
2021/04/27 04:39:13;;;;;;;4.90;3.40;;;5.30;99.90;;;;;;5030859;28;20240;-56
2021/04/27 04:41:39;;;;;;;7.20;4.07;;;5.50;99.90;;;;;;5029673;28;20282;-56
2021/04/27 04:44:06;;;;;;;7.70;3.10;;;5.50;99.90;;;;;;5043391;28;20200;-56
2021/04/27 04:46:37;;;;;;;5.20;3.10;;;5.60;99.90;;;;;;5028707;28;20219;-56
2021/04/27 04:49:04;;;;;;;5.67;3.43;;;5.60;99.90;;;;;;5034353;28;20200;-56
2021/04/27 04:51:30;;;;;;;3.87;3.47;;;5.60;99.90;;;;;;5036404;28;20247;-56
2021/04/27 04:53:57;;;;;;;7.27;4.10;;;5.60;99.90;;;;;;5032996;28;20601;-56
2021/04/27 04:56:23;;;;;;;5.27;3.27;;;5.60;99.90;;;;;;5034458;28;20499;-56
2021/04/27 04:58:50;;;;;;;3.43;3.13;;;5.70;99.90;;;;;;5031168;28;20200;-56
2021/04/27 05:01:17;;;;;;;4.47;3.10;;;5.60;99.90;;;;;;5027206;28;20204;-56
2021/04/27 05:03:44;;;;;;;6.07;3.77;;;5.60;99.90;;;;;;5030998;28;20434;-56
2021/04/27 05:06:16;;;;;;;7.07;3.67;;;5.70;99.90;;;;;;5025750;28;20258;-56
2021/04/27 05:08:48;;;;;;;6.00;3.80;;;5.80;99.90;;;;;;5031505;28;20695;-55
2021/04/27 05:11:16;;;;;;;8.83;3.90;;;5.80;99.90;;;;;;5030324;28;20189;-56
2021/04/27 05:13:42;;;;;;;4.97;3.70;;;5.90;99.90;;;;;;5028242;28;20204;-56
2021/04/27 05:16:09;;;;;;;4.80;3.40;;;5.90;99.90;;;;;;5035961;28;20269;-56
2021/04/27 05:18:37;;;;;;;6.03;3.90;;;6.00;99.90;;;;;;5038074;28;20254;-56
2021/04/27 05:21:04;;;;;;;5.50;4.20;;;6.00;99.90;;;;;;5028104;28;20272;-56
2021/04/27 05:23:31;;;;;;;6.80;4.67;;;6.00;99.90;;;;;;5032173;28;20288;-56
2021/04/27 05:25:58;;;;;;;5.13;4.03;;;6.10;99.90;;;;;;5033483;28;20232;-56
2021/04/27 05:28:24;;;;;;;7.47;4.33;;;6.20;99.90;;;;;;5033120;28;20258;-56
2021/04/27 05:30:51;;;;;;;5.87;4.13;;;6.30;99.90;;;;;;5033950;28;20621;-56
2021/04/27 05:33:17;;;;;;;5.00;3.73;;;6.20;99.90;;;;;;5033679;28;20227;-56
2021/04/27 05:35:43;;;;;;;5.57;3.67;;;6.40;99.90;;;;;;5028777;28;20727;-56
2021/04/27 05:38:10;;;;;;;5.53;3.90;;;6.50;99.90;;;;;;5024268;28;20213;-56
2021/04/27 05:40:37;;;;;;;7.47;3.80;;;6.40;99.90;;;;;;5028730;28;20213;-56
2021/04/27 05:43:04;;;;;;;6.83;4.77;;;6.50;99.90;;;;;;5034785;28;20192;-56
2021/04/27 05:45:31;;;;;;;4.60;4.07;;;6.70;99.90;;;;;;5041727;28;20398;-56
2021/04/27 05:47:57;;;;;;;6.27;4.30;;;6.80;99.90;;;;;;5028927;28;20196;-56
2021/04/27 05:50:24;;;;;;;3.83;3.43;;;6.90;99.90;;;;;;5026815;28;20556;-56
2021/04/27 05:52:51;;;;;;;3.97;3.57;;;7.10;99.90;;;;;;5028346;28;20494;-56
2021/04/27 05:55:17;;;;;;;5.83;4.10;;;7.20;99.90;;;;;;5028410;28;20908;-56
2021/04/27 05:57:44;;;;;;;5.30;3.93;;;7.40;99.90;;;;;;5034547;28;20202;-56
2021/04/27 06:00:11;;;;;;;6.47;4.63;;;7.40;99.90;;;;;;5021750;28;20219;-56
2021/04/27 06:02:37;;;;;;;4.80;4.17;;;7.40;99.90;;;;;;5026365;28;20266;-56
2021/04/27 06:05:04;;;;;;;4.97;4.00;;;7.30;99.90;;;;;;5036053;28;20280;-56
2021/04/27 06:07:31;;;;;;;5.10;3.60;;;7.10;99.90;;;;;;5030478;28;20254;-56
2021/04/27 06:09:57;;;;;;;6.07;4.03;;;7.10;99.90;;;;;;5027822;28;20790;-56
2021/04/27 06:12:27;;;;;;;6.00;4.50;;;7.20;99.90;;;;;;5029160;28;20539;-56
2021/04/27 06:14:54;;;;;;;8.27;4.20;;;7.30;99.90;;;;;;5033085;28;20325;-56
2021/04/27 06:17:20;;;;;;;6.17;4.13;;;7.40;99.90;;;;;;5032823;28;20542;-56
2021/04/27 06:19:46;;;;;;;9.17;4.03;;;7.30;99.90;;;;;;5025616;28;20297;-56
2021/04/27 06:22:13;;;;;;;6.00;4.37;;;7.30;99.90;;;;;;5025032;28;20739;-56
2021/04/27 06:24:39;;;;;;;5.27;4.33;;;7.30;99.90;;;;;;5027746;28;20258;-56
2021/04/27 06:27:17;;;;;;;6.17;4.50;;;7.40;99.90;;;;;;5029745;28;20302;-56
2021/04/27 06:29:48;;;;;;;7.33;4.77;;;7.50;99.90;;;;;;5036335;28;20232;-56
2021/04/27 06:32:15;;;;;;;7.83;4.30;;;7.70;99.90;;;;;;5036923;28;20835;-56
2021/04/27 06:34:41;;;;;;;6.93;4.37;;;7.90;99.90;;;;;;5033823;28;20244;-56
2021/04/27 06:37:08;;;;;;;7.47;4.17;;;7.90;99.00;;;;;;5023086;28;20599;-56
2021/04/27 06:39:34;;;;;;;6.03;4.17;;;7.90;98.70;;;;;;5024060;28;20656;-56
2021/04/27 06:42:01;;;;;;;6.70;4.63;;;7.90;96.60;;;;;;5031583;28;20217;-56
2021/04/27 06:44:27;;;;;;;7.30;4.73;;;8.30;95.50;;;;;;5030102;28;20209;-58
2021/04/27 06:46:53;;;;;;;6.07;4.40;;;8.50;93.40;;;;;;5028736;28;20217;-56
2021/04/27 06:49:20;;;;;;;6.37;4.53;;;8.60;92.40;;;;;;5026063;28;20863;-56
2021/04/27 06:51:47;;;;;;;7.80;5.57;;;8.60;91.20;;;;;;5030010;28;20241;-56
2021/04/27 06:54:13;;;;;;;6.60;3.93;;;8.50;92.90;;;;;;5040517;28;20199;-56
2021/04/27 06:56:40;;;;;;;6.83;4.93;;;8.50;92.80;;;;;;5032329;28;20290;-56
2021/04/27 06:59:31;;;;;;;5.20;4.70;;;8.70;91.40;;;;;;5027552;28;20259;-56
2021/04/27 07:02:03;;;;;;;6.53;4.30;;;9.00;88.70;;;;;;5040443;28;20294;-56
2021/04/27 07:04:30;;;;;;;6.30;4.93;;;9.20;86.80;;;;;;5034553;28;20515;-56
2021/04/27 07:06:56;;;;;;;7.77;4.33;;;9.40;82.90;;;;;;5033886;28;20189;-56
2021/04/27 07:09:23;;;;;;;9.63;4.20;;;9.60;74.30;;;;;;5029709;28;20201;-56
2021/04/27 07:11:49;;;;;;;5.10;4.00;;;9.80;74.40;;;;;;5034509;28;20254;-56
2021/04/27 07:14:15;;;;;;;6.57;4.63;;;9.90;68.60;;;;;;5024977;28;20271;-56
2021/04/27 07:16:46;;;;;;;4.67;4.07;;;10.20;66.70;;;;;;5040114;28;20204;-58
2021/04/27 07:19:13;;;;;;;6.73;4.70;;;10.40;64.00;;;;;;5039747;28;20196;-56
2021/04/27 07:21:40;;;;;;;7.60;4.27;;;10.70;62.90;;;;;;5035368;28;20279;-56
2021/04/27 07:24:08;;;;;;;6.40;4.70;;;10.70;60.20;;;;;;5030332;28;20201;-57
2021/04/27 07:26:35;;;;;;;6.97;5.23;;;11.10;56.70;;;;;;5034026;28;20252;-56
2021/04/27 07:29:03;;;;;;;6.50;4.40;;;11.30;55.50;;;;;;5037315;28;20200;-56
2021/04/27 07:31:30;;;;;;;5.87;3.97;;;10.90;53.10;;;;;;5030685;28;20200;-56
2021/04/27 07:33:56;;;;;;;5.47;4.70;;;10.70;52.10;;;;;;5028576;28;20205;-56
2021/04/27 07:36:23;;;;;;;10.13;4.70;;;11.20;52.80;;;;;;5026818;28;20200;-56
2021/04/27 07:38:49;;;;;;;6.00;4.00;;;11.80;51.50;;;;;;5032480;28;20208;-56
2021/04/27 07:41:16;;;;;;;5.90;3.63;;;11.90;47.60;;;;;;5028658;28;20372;-56
2021/04/27 07:43:42;;;;;;;4.93;3.97;;;11.90;41.70;;;;;;5033017;28;20254;-56
2021/04/27 07:46:09;;;;;;;7.13;4.33;;;12.00;39.10;;;;;;5029214;28;20280;-56
2021/04/27 07:48:35;;;;;;;9.37;3.90;;;11.90;36.50;;;;;;5032718;28;20254;-56
2021/04/27 07:51:02;;;;;;;8.40;3.90;;;11.90;35.60;;;;;;5029626;28;20201;-56
2021/04/27 07:53:28;;;;;;;8.27;4.90;;;12.10;37.30;;;;;;5038354;28;20209;-56
2021/04/27 07:55:55;;;;;;;6.43;4.03;;;12.40;34.80;;;;;;5030887;28;20233;-57
2021/04/27 07:58:21;;;;;;;6.20;3.90;;;12.60;32.20;;;;;;5032952;28;20227;-56
2021/04/27 08:00:48;;;;;;;5.57;3.43;;;12.80;31.00;;;;;;5043630;28;20423;-56
2021/04/27 08:03:14;;;;;;;5.87;3.67;;;12.90;28.80;;;;;;5034130;28;20248;-56
2021/04/27 08:05:41;;;;;;;4.57;3.37;;;13.10;30.10;;;;;;5031224;28;20516;-56
2021/04/27 08:08:08;;;;;;;5.03;3.70;;;13.10;26.80;;;;;;5038164;28;20231;-56
2021/04/27 08:10:34;;;;;;;7.17;3.70;;;12.80;23.50;;;;;;5020780;28;20295;-56
2021/04/27 08:13:01;;;;;;;4.60;3.33;;;13.00;22.20;;;;;;5032647;28;20464;-56
2021/04/27 08:15:30;;;;;;;5.67;3.83;;;13.30;21.50;;;;;;5031735;28;20232;-56
2021/04/27 08:17:59;;;;;;;3.93;3.57;;;13.60;19.10;;;;;;5040205;28;20686;-56
2021/04/27 08:20:30;;;;;;;4.90;3.20;;;13.50;19.50;;;;;;5028831;28;20583;-56
2021/04/27 08:22:57;;;;;;;3.90;3.20;;;13.40;18.50;;;;;;5026774;28;20294;-56
2021/04/27 08:25:32;;;;;;;7.77;3.40;;;13.80;18.20;;;;;;5037414;28;20237;-56
2021/04/27 08:27:59;;;;;;;5.27;3.73;;;14.10;13.80;;;;;;5027923;28;20652;-56
2021/04/27 08:30:26;;;;;;;10.23;4.43;;;14.10;11.60;;;;;;5028281;28;20644;-56
2021/04/27 08:32:52;;;;;;;7.57;3.50;;;14.50;15.20;;;;;;5030516;28;20206;-56
2021/04/27 08:35:20;;;;;;;4.00;3.60;;;14.60;10.80;;;;;;5036979;28;20548;-56
2021/04/27 08:37:46;;;;;;;6.37;3.60;;;14.80;11.30;;;;;;5036136;28;20236;-56
2021/04/27 08:40:15;;;;;;;4.13;3.27;;;15.10;10.30;;;;;;5033851;28;20661;-56
2021/04/27 08:42:45;;;;;;;8.17;4.10;;;15.00;10.30;;;;;;5032590;28;20563;-56
2021/04/27 08:45:12;;;;;;;6.13;4.20;;;15.30;8.00;;;;;;5018278;28;20215;-55
2021/04/27 08:47:39;;;;;;;4.47;3.57;;;15.20;6.60;;;;;;5028122;28;20310;-56
2021/04/27 08:50:08;;;;;;;4.50;3.77;;;15.70;4.80;;;;;;5028945;28;20204;-56
2021/04/27 08:52:35;;;;;;;4.83;3.77;;;15.20;2.50;;;;;;5028968;28;20622;-56
2021/04/27 08:55:01;;;;;;;5.97;3.77;;;15.40;2.40;;;;;;5034727;28;20210;-56
2021/04/27 08:57:28;;;;;;;5.10;3.70;;;15.40;4.20;;;;;;5029029;28;20197;-56
2021/04/27 08:59:54;;;;;;;4.90;3.53;;;15.30;1.10;;;;;;5029002;28;20331;-56
2021/04/27 09:02:29;;;;;;;4.97;4.03;;;15.50;2.00;;;;;;5035027;28;20603;-56
2021/04/27 09:04:56;;;;;;;5.17;3.70;;;15.70;2.00;;;;;;5028716;28;20197;-56
2021/04/27 09:07:28;;;;;;;4.40;3.80;;;16.00;1.00;;;;;;5030724;28;20192;-56
2021/04/27 09:09:57;;;;;;;5.67;3.57;;;15.70;1.00;;;;;;5031207;28;20303;-56
2021/04/27 09:12:27;;;;;;;4.03;3.07;;;15.40;1.00;;;;;;5037727;28;20201;-56
2021/04/27 09:14:58;;;;;;;3.73;3.20;;;15.40;1.00;;;;;;5026965;28;20858;-56
2021/04/27 09:17:27;;;;;;;3.70;3.33;;;15.10;1.00;;;;;;5035028;28;20575;-56
2021/04/27 09:19:58;;;;;;;6.43;3.70;;;15.60;1.00;;;;;;5032254;28;20323;-56
2021/04/27 09:22:34;;;;;;;6.70;4.10;;;16.00;1.00;;;;;;5029067;28;20409;-56
2021/04/27 09:25:06;;;;;;;9.03;3.97;;;15.60;1.00;;;;;;5028838;28;20538;-56
2021/04/27 09:27:48;;;;;;;4.03;3.30;;;15.20;1.00;;;;;;5026147;28;20225;-56
2021/04/27 09:30:20;;;;;;;5.57;3.73;;;15.20;1.00;;;;;;5026290;28;20614;-56
2021/04/27 09:32:53;;;;;;;5.83;3.13;;;15.90;1.00;;;;;;5024856;28;20677;-56
2021/04/27 09:35:33;;;;;;;6.80;3.30;;;16.30;1.00;;;;;;5030956;28;20289;-56
2021/04/27 09:38:18;;;;;;;6.10;3.37;;;15.80;1.00;;;;;;5031964;28;20204;-58
2021/04/27 09:40:47;;;;;;;5.13;3.23;;;16.10;1.00;;;;;;5026686;28;20218;-56
2021/04/27 09:43:16;;;;;;;6.60;3.47;;;16.30;1.00;;;;;;5039019;28;20205;-56
2021/04/27 09:45:44;;;;;;;8.17;4.73;;;16.50;1.00;;;;;;5032512;28;20310;-57
2021/04/27 09:48:12;;;;;;;8.40;3.13;;;15.70;1.00;;;;;;5032961;28;20264;-56
2021/04/27 09:50:39;;;;;;;3.57;3.07;;;16.00;1.00;;;;;;5031663;28;20214;-58
2021/04/27 09:53:07;;;;;;;6.77;3.30;;;16.40;1.00;;;;;;5033383;28;20311;-56
2021/04/27 09:55:35;;;;;;;3.37;3.07;;;16.60;1.00;;;;;;5040605;28;20320;-56
2021/04/27 09:58:03;;;;;;;4.93;3.40;;;16.20;1.00;;;;;;5036990;28;20314;-56
2021/04/27 10:00:39;;;;;;;4.67;3.23;;;16.50;1.00;;;;;;5030358;28;20325;-57
2021/04/27 10:03:10;;;;;;;6.50;3.73;;;16.70;1.00;;;;;;5036099;28;20197;-57
2021/04/27 10:05:39;;;;;;;6.43;3.17;;;16.80;1.00;;;;;;5036146;28;20210;-57
2021/04/27 10:08:06;;;;;;;7.10;3.73;;;16.80;1.00;;;;;;5034124;28;20263;-57
2021/04/27 10:10:34;;;;;;;6.97;3.40;;;16.40;1.00;;;;;;5031844;28;20576;-57
2021/04/27 10:13:02;;;;;;;4.87;3.43;;;16.10;1.00;;;;;;5030404;28;20221;-56
2021/04/27 10:15:29;;;;;;;4.67;3.73;;;16.60;1.00;;;;;;5028741;28;20809;-57
2021/04/27 10:17:58;;;;;;;3.97;3.47;;;16.10;1.00;;;;;;5036167;28;20237;-57
2021/04/27 10:20:25;;;;;;;4.30;3.90;;;16.40;1.00;;;;;;5029598;28;20229;-57
2021/04/27 10:22:52;;;;;;;3.93;3.53;;;16.40;1.00;;;;;;5029340;28;20204;-56
2021/04/27 10:25:29;;;;;;;5.30;3.30;;;15.90;1.00;;;;;;5030394;28;20269;-57
2021/04/27 10:27:59;;;;;;;3.97;3.40;;;16.50;1.00;;;;;;5037136;28;20223;-56
2021/04/27 10:30:34;;;;;;;4.33;3.67;;;16.30;1.00;;;;;;5035136;28;20284;-56
2021/04/27 10:33:03;;;;;;;4.87;3.70;;;16.00;1.00;;;;;;5029914;28;20211;-57
2021/04/27 10:35:33;;;;;;;5.73;3.43;;;16.30;1.00;;;;;;5038132;28;20198;-57
2021/04/27 10:38:00;;;;;;;4.33;3.20;;;16.20;1.00;;;;;;5036674;28;20314;-58
2021/04/27 10:40:42;;;;;;;4.63;3.67;;;16.10;1.00;;;;;;5035295;28;20245;-57
2021/04/27 10:43:30;;;;;;;6.17;3.23;;;15.70;1.00;;;;;;5043479;28;20236;-57
2021/04/27 10:46:17;;;;;;;9.10;3.50;;;15.90;1.00;;;;;;5036917;28;20244;-58
2021/04/27 10:48:45;;;;;;;5.47;3.40;;;16.10;1.00;;;;;;5033898;28;20333;-59
2021/04/27 10:51:20;;;;;;;4.10;3.00;;;16.20;1.00;;;;;;5040311;28;20627;-60
2021/04/27 10:54:05;;;;;;;3.73;3.00;;;16.20;1.00;;;;;;5039440;28;20261;-58
2021/04/27 10:56:35;;;;;;;4.57;3.87;;;16.70;1.00;;;;;;5030931;28;20224;-50
2021/04/27 10:59:25;;;;;;;5.03;3.93;;;17.10;1.00;;;;;;5033531;28;20282;-51
2021/04/27 11:02:11;;;;;;;5.17;3.77;;;17.10;1.00;;;;;;5031297;28;20229;-50
2021/04/27 11:04:46;;;;;;;5.03;3.80;;;16.90;1.00;;;;;;5035622;28;20228;-50
2021/04/27 11:10:00;;;;;;;5.43;3.83;;;16.90;1.00;;;;;;5030912;28;20200;-50
2021/04/27 11:12:51;;;;;;;4.80;3.60;;;16.80;1.00;;;;;;5046051;28;20200;-51
2021/04/27 11:15:32;;;;;;;4.40;3.50;;;17.10;1.00;;;;;;5044211;28;20241;-51
2021/04/27 11:18:15;;;;;;;3.73;3.43;;;17.20;1.00;;;;;;5037106;28;20290;-50
2021/04/27 11:20:59;;;;;;;7.80;3.20;;;17.40;1.00;;;;;;5032853;28;20264;-51
2021/04/27 11:23:41;;;;;;;3.87;3.40;;;17.50;1.00;;;;;;5033421;28;20214;-50
2021/04/27 11:26:32;;;;;;;4.63;4.00;;;17.80;1.00;;;;;;5032603;28;20226;-50
2021/04/27 11:28:58;;;;;;;7.30;3.97;;;18.60;1.00;;;;;;5031325;28;20338;-51
2021/04/27 11:31:24;;;;;;;4.93;3.30;;;18.20;1.00;;;;;;5034238;28;20330;-51
2021/04/27 11:33:58;;;;;;;3.57;3.27;;;18.60;1.00;;;;;;5028718;28;20196;-51
2021/04/27 11:36:42;;;;;;;4.10;3.47;;;18.50;1.00;;;;;;5032349;28;20274;-50
2021/04/27 11:39:23;;;;;;;4.90;3.90;;;18.40;1.00;;;;;;5033800;28;20207;-52
2021/04/27 11:42:01;;;;;;;4.77;3.50;;;18.40;1.00;;;;;;5035798;28;20212;-52
2021/04/27 11:44:34;;;;;;;5.17;3.37;;;18.50;1.00;;;;;;5030919;28;20203;-51
2021/04/27 11:47:06;;;;;;;5.07;4.07;;;18.70;1.00;;;;;;5033268;28;20656;-51
2021/04/27 11:49:47;;;;;;;4.60;3.67;;;18.90;1.00;;;;;;5033495;28;20638;-51
2021/04/27 11:52:15;;;;;;;4.43;3.70;;;18.60;1.00;;;;;;5036413;28;20282;-52
2021/04/27 11:54:42;;;;;;;6.80;4.00;;;18.50;1.00;;;;;;5034262;28;20274;-51
2021/04/27 11:57:17;;;;;;;4.23;3.80;;;18.80;1.00;;;;;;5031692;28;20205;-51
2021/04/27 11:59:44;;;;;;;4.93;4.43;;;18.80;1.00;;;;;;5037162;28;20287;-51
2021/04/27 12:02:14;;;;;;;5.37;3.97;;;18.30;1.00;;;;;;5041582;28;20242;-51
2021/04/27 12:04:42;;;;;;;4.13;3.50;;;18.20;1.00;;;;;;5028930;28;20617;-51
2021/04/27 12:07:08;;;;;;;8.70;4.67;;;18.00;1.00;;;;;;5032673;28;20276;-50
2021/04/27 12:09:44;;;;;;;7.40;3.80;;;18.50;1.00;;;;;;5031408;28;20342;-50
2021/04/27 12:12:13;;;;;;;4.07;3.57;;;18.50;1.00;;;;;;5029776;28;20206;-51
2021/04/27 12:14:54;;;;;;;6.70;4.00;;;18.90;1.00;;;;;;5025840;28;20262;-50
2021/04/27 12:17:38;;;;;;;4.33;3.80;;;19.50;1.00;;;;;;5032695;28;20210;-51
2021/04/27 12:20:16;;;;;;;5.50;3.40;;;19.60;1.00;;;;;;5032442;28;20243;-51
2021/04/27 12:22:55;;;;;;;4.13;3.53;;;19.60;1.00;;;;;;5036150;28;20194;-50
2021/04/27 12:25:23;;;;;;;5.20;3.57;;;19.60;1.00;;;;;;5031017;28;21198;-50
2021/04/27 12:27:52;;;;;;;5.60;4.30;;;19.40;1.00;;;;;;5031753;28;20218;-50
2021/04/27 12:30:23;;;;;;;5.27;3.97;;;19.20;1.00;;;;;;5030048;28;20346;-51
2021/04/27 12:33:05;;;;;;;4.03;3.63;;;19.00;1.00;;;;;;5030412;28;20286;-51
2021/04/27 12:35:34;;;;;;;4.80;3.53;;;19.00;1.00;;;;;;5034900;28;20205;-51
2021/04/27 12:38:03;;;;;;;5.93;3.40;;;19.50;1.00;;;;;;5029269;28;20274;-51
2021/04/27 12:40:44;;;;;;;4.67;3.33;;;20.20;1.00;;;;;;5031098;28;20346;-51
2021/04/27 12:43:13;;;;;;;3.87;3.47;;;20.20;1.00;;;;;;5036152;28;20646;-52
2021/04/27 12:45:53;;;;;;;5.10;3.60;;;20.10;1.00;;;;;;5037600;28;20272;-51
2021/04/27 12:48:20;;;;;;;4.97;3.87;;;19.80;1.00;;;;;;5025723;28;20633;-51
2021/04/27 12:51:03;;;;;;;4.97;3.43;;;20.20;1.00;;;;;;5031282;28;20199;-49
2021/04/27 12:53:37;;;;;;;6.63;3.70;;;19.60;1.00;;;;;;5030771;28;20209;-50
2021/04/27 12:56:14;;;;;;;4.70;3.43;;;19.50;1.00;;;;;;5033644;28;20205;-49
2021/04/27 12:58:44;;;;;;;6.33;4.07;;;19.80;1.00;;;;;;5031047;28;20205;-52
2021/04/27 13:01:21;;;;;;;4.93;3.97;;;19.80;1.00;;;;;;5034154;28;20747;-50
2021/04/27 13:03:48;;;;;;;5.90;3.77;;;20.30;1.00;;;;;;5029250;28;20623;-50
2021/04/27 13:06:32;;;;;;;11.07;3.77;;;19.50;1.00;;;;;;5028279;28;20272;-50
2021/04/27 13:09:07;;;;;;;8.50;3.40;;;19.60;1.00;;;;;;5035495;28;20218;-50
2021/04/27 13:11:35;;;;;;;6.43;3.70;;;19.90;1.00;;;;;;5032205;28;20199;-50